createdAt,value
2022-11-19T00:02:18.003Z,5.30
2022-11-19T00:04:47.090Z,5.33
2022-11-19T00:07:15.524Z,4.23
2022-11-19T00:09:44.241Z,7.53
2022-11-19T00:12:30.914Z,5.37
2022-11-19T00:15:00.618Z,4.87
2022-11-19T00:17:29.828Z,3.53
2022-11-19T00:19:58.173Z,4.40
2022-11-19T00:22:26.972Z,3.83
2022-11-19T00:24:55.363Z,8.00
2022-11-19T00:27:24.362Z,5.50
2022-11-19T00:29:52.744Z,5.33
2022-11-19T00:32:23.297Z,6.43
2022-11-19T00:34:51.708Z,4.97
2022-11-19T00:37:20.971Z,3.67
2022-11-19T00:39:49.762Z,4.03
2022-11-19T00:42:18.181Z,4.30
2022-11-19T00:44:47.665Z,6.93
2022-11-19T00:47:16.370Z,4.67
2022-11-19T00:49:47.175Z,4.70
2022-11-19T00:52:16.046Z,4.70
2022-11-19T00:54:44.413Z,2.73
2022-11-19T00:57:13.692Z,4.07
2022-11-19T00:59:42.142Z,4.23
2022-11-19T01:02:10.950Z,3.50
2022-11-19T01:04:39.500Z,4.30
2022-11-19T01:07:09.273Z,3.33
2022-11-19T01:09:37.995Z,5.77
2022-11-19T01:12:07.018Z,3.30
2022-11-19T01:14:35.535Z,6.53
2022-11-19T01:17:03.936Z,3.30
2022-11-19T01:19:32.956Z,8.23
2022-11-19T01:22:01.829Z,5.13
2022-11-19T01:24:31.849Z,3.60
2022-11-19T01:27:01.123Z,3.67
2022-11-19T01:29:30.049Z,4.60
2022-11-19T01:31:58.447Z,2.10
2022-11-19T01:34:27.812Z,5.17
2022-11-19T01:36:56.236Z,6.20
2022-11-19T01:39:25.602Z,7.30
2022-11-19T01:41:55.328Z,3.03
2022-11-19T01:45:00.724Z,3.87
2022-11-19T01:47:29.565Z,2.73
2022-11-19T01:49:58.022Z,2.20
2022-11-19T01:52:27.075Z,2.90
2022-11-19T01:54:56.738Z,2.67
2022-11-19T01:57:27.006Z,2.00
2022-11-19T01:59:55.615Z,3.40
2022-11-19T02:02:25.228Z,3.23
2022-11-19T02:04:57.165Z,2.57
2022-11-19T02:07:29.283Z,2.50
2022-11-19T02:10:01.424Z,2.80
2022-11-19T02:12:43.142Z,3.77
2022-11-19T02:15:23.046Z,2.80
2022-11-19T02:18:30.690Z,2.37
2022-11-19T02:21:06.710Z,3.43
2022-11-19T02:24:02.108Z,2.00
2022-11-19T02:27:00.213Z,2.10
2022-11-19T02:30:06.546Z,2.37
2022-11-19T02:32:39.757Z,3.03
2022-11-19T02:35:19.372Z,1.90
2022-11-19T02:37:54.896Z,3.13
2022-11-19T02:40:27.579Z,2.43
2022-11-19T02:43:05.186Z,4.07
2022-11-19T02:45:38.923Z,2.03
2022-11-19T02:48:13.466Z,4.83
2022-11-19T02:50:46.353Z,3.23
2022-11-19T02:53:15.606Z,4.07
2022-11-19T02:56:07.167Z,3.20
2022-11-19T02:58:56.325Z,4.27
2022-11-19T03:01:47.571Z,4.27
2022-11-19T03:04:31.209Z,4.40
2022-11-19T03:07:03.833Z,4.53
2022-11-19T03:09:35.413Z,5.27
2022-11-19T03:12:13.326Z,5.20
2022-11-19T03:15:08.874Z,5.40
2022-11-19T03:17:52.725Z,3.67
2022-11-19T03:20:26.450Z,5.80
2022-11-19T03:23:00.134Z,3.07
2022-11-19T03:25:32.986Z,3.57
2022-11-19T03:28:04.734Z,4.13
2022-11-19T03:30:33.792Z,4.13
2022-11-19T03:33:08.112Z,4.60
2022-11-19T03:35:44.264Z,2.77
2022-11-19T03:38:17.875Z,5.63
2022-11-19T03:40:49.322Z,2.77
2022-11-19T03:43:21.439Z,4.83
2022-11-19T03:45:53.164Z,3.07
2022-11-19T03:48:25.293Z,4.53
2022-11-19T03:50:58.471Z,4.57
2022-11-19T03:53:29.234Z,2.97
2022-11-19T03:56:01.411Z,6.10
2022-11-19T03:58:35.437Z,4.47
2022-11-19T04:01:03.821Z,3.63
2022-11-19T04:03:34.685Z,4.50
2022-11-19T04:06:03.436Z,4.37
2022-11-19T04:08:33.299Z,3.93
2022-11-19T04:13:29.942Z,8.23
2022-11-19T04:15:58.333Z,9.13
2022-11-19T04:18:27.558Z,11.10
2022-11-19T04:20:57.339Z,5.13
2022-11-19T04:23:25.778Z,2.80
2022-11-19T04:25:54.693Z,4.00
2022-11-19T04:28:23.376Z,3.57
2022-11-19T04:30:52.211Z,2.53
2022-11-19T04:33:20.648Z,2.37
2022-11-19T04:35:49.662Z,7.57
2022-11-19T04:38:20.038Z,2.60
2022-11-19T04:40:49.129Z,3.70
2022-11-19T04:43:17.519Z,3.20
2022-11-19T04:45:46.267Z,2.80
2022-11-19T04:48:15.093Z,3.43
2022-11-19T04:50:43.597Z,3.67
2022-11-19T04:53:12.883Z,4.00
2022-11-19T04:55:43.302Z,14.53
2022-11-19T04:58:11.776Z,4.80
2022-11-19T05:00:40.711Z,4.10
2022-11-19T05:03:09.619Z,4.57
2022-11-19T05:05:38.051Z,5.17
2022-11-19T05:08:07.555Z,4.30
2022-11-19T05:10:36.779Z,5.77
2022-11-19T05:13:07.198Z,4.50
2022-11-19T05:15:35.747Z,4.60
2022-11-19T05:18:04.648Z,5.43
2022-11-19T05:20:33.565Z,6.33
2022-11-19T05:23:02.411Z,5.53
2022-11-19T05:25:30.936Z,6.17
2022-11-19T05:28:00.149Z,6.53
2022-11-19T05:30:29.912Z,7.90
2022-11-19T05:32:59.279Z,7.87
2022-11-19T05:35:27.762Z,7.03
2022-11-19T05:37:57.114Z,5.77
2022-11-19T05:40:25.568Z,5.60
2022-11-19T05:42:54.075Z,6.23
2022-11-19T05:45:22.900Z,12.57
2022-11-19T05:47:56.462Z,7.70
2022-11-19T05:50:24.877Z,7.00
2022-11-19T05:52:54.086Z,6.37
2022-11-19T05:55:22.881Z,6.20
2022-11-19T05:57:51.327Z,7.30
2022-11-19T06:00:21.727Z,6.03
2022-11-19T06:02:50.611Z,6.00
2022-11-19T06:05:20.335Z,6.83
2022-11-19T06:07:48.770Z,6.30
2022-11-19T06:10:17.461Z,5.90
2022-11-19T06:12:46.569Z,7.97
2022-11-19T06:15:15.804Z,8.60
2022-11-19T06:17:44.245Z,7.93
2022-11-19T06:20:13.127Z,7.50
2022-11-19T06:22:43.405Z,6.80
2022-11-19T06:25:11.844Z,7.80
2022-11-19T06:27:40.930Z,7.87
2022-11-19T06:30:10.946Z,8.13
2022-11-19T06:32:39.860Z,9.27
2022-11-19T06:35:08.931Z,8.20
2022-11-19T06:37:38.319Z,9.73
2022-11-19T06:40:09.607Z,7.63
2022-11-19T06:42:38.639Z,7.50
2022-11-19T06:45:09.423Z,7.57
2022-11-19T06:47:39.563Z,6.43
2022-11-19T06:50:10.108Z,7.53
2022-11-19T06:52:39.289Z,8.60
2022-11-19T06:55:10.722Z,6.87
2022-11-19T06:57:39.202Z,7.17
2022-11-19T07:00:09.151Z,7.60
2022-11-19T07:02:38.041Z,8.70
2022-11-19T07:05:08.130Z,6.27
2022-11-19T07:07:37.089Z,7.47
2022-11-19T07:10:07.220Z,6.17
2022-11-19T07:12:38.024Z,7.20
2022-11-19T07:15:07.933Z,7.00
2022-11-19T07:17:37.809Z,7.23
2022-11-19T07:20:08.408Z,8.00
2022-11-19T07:22:36.835Z,6.50
2022-11-19T07:25:06.222Z,7.10
2022-11-19T07:27:35.716Z,6.73
2022-11-19T07:30:07.866Z,6.60
2022-11-19T07:32:36.341Z,6.93
2022-11-19T07:35:05.377Z,11.90
2022-11-19T07:37:34.114Z,9.53
2022-11-19T07:40:02.660Z,6.27
2022-11-19T07:42:49.092Z,7.07
2022-11-19T07:45:19.981Z,6.27
2022-11-19T07:47:49.156Z,11.73
2022-11-19T07:50:18.214Z,5.70
2022-11-19T07:52:46.637Z,17.73
2022-11-19T07:55:15.502Z,7.47
2022-11-19T07:57:44.422Z,7.00
2022-11-19T08:00:14.486Z,30.70
2022-11-19T08:02:44.853Z,13.67
2022-11-19T08:05:13.964Z,17.47
2022-11-19T08:07:43.485Z,8.83
2022-11-19T08:10:12.705Z,11.90
2022-11-19T08:12:41.517Z,8.10
2022-11-19T08:15:10.870Z,8.30
2022-11-19T08:17:57.230Z,8.33
2022-11-19T08:20:26.967Z,5.93
2022-11-19T08:22:55.821Z,6.70
2022-11-19T08:25:24.439Z,7.60
2022-11-19T08:27:53.731Z,6.90
2022-11-19T08:30:22.162Z,6.63
2022-11-19T08:32:50.558Z,6.73
2022-11-19T08:35:19.392Z,7.00
2022-11-19T08:37:49.363Z,6.33
2022-11-19T08:40:18.738Z,5.97
2022-11-19T08:43:01.042Z,5.97
2022-11-19T08:45:31.860Z,6.03
2022-11-19T08:48:01.932Z,7.10
2022-11-19T08:50:31.696Z,6.00
2022-11-19T08:53:05.169Z,5.67
2022-11-19T08:55:33.938Z,5.80
2022-11-19T08:58:04.056Z,6.37
2022-11-19T09:00:34.175Z,5.77
2022-11-19T09:03:02.724Z,5.50
2022-11-19T09:05:31.474Z,5.47
2022-11-19T09:08:01.307Z,5.63
2022-11-19T09:10:30.347Z,6.27
2022-11-19T09:12:58.813Z,6.30
2022-11-19T09:15:27.567Z,8.57
2022-11-19T09:17:56.385Z,5.93
2022-11-19T09:20:25.640Z,7.57
2022-11-19T09:22:55.358Z,6.00
2022-11-19T09:25:25.235Z,6.87
2022-11-19T09:27:54.101Z,6.17
2022-11-19T09:30:22.489Z,7.90
2022-11-19T09:32:51.178Z,8.40
2022-11-19T09:35:20.277Z,6.80
2022-11-19T09:37:48.736Z,7.60
2022-11-19T09:40:21.211Z,6.77
2022-11-19T09:43:01.858Z,7.93
2022-11-19T09:45:42.770Z,7.03
2022-11-19T09:48:26.037Z,7.50
2022-11-19T09:51:00.090Z,7.83
2022-11-19T09:53:34.265Z,7.47
2022-11-19T09:56:03.678Z,9.53
2022-11-19T09:58:39.758Z,8.63
2022-11-19T10:01:11.762Z,8.10
2022-11-19T10:03:42.693Z,9.43
2022-11-19T10:06:26.661Z,7.83
2022-11-19T10:09:12.115Z,10.00
2022-11-19T10:11:52.177Z,10.00
2022-11-19T10:14:41.897Z,7.70
2022-11-19T10:17:20.912Z,7.77
2022-11-19T10:20:04.873Z,8.50
2022-11-19T10:22:40.023Z,7.80
2022-11-19T10:25:18.053Z,9.07
2022-11-19T10:27:49.998Z,7.47
2022-11-19T10:30:23.577Z,7.27
2022-11-19T10:32:58.308Z,8.37
2022-11-19T10:35:31.136Z,9.30
2022-11-19T10:38:02.328Z,8.77
2022-11-19T10:40:36.611Z,15.53
2022-11-19T10:43:23.212Z,8.83
2022-11-19T10:45:54.748Z,8.60
2022-11-19T10:48:25.784Z,8.20
2022-11-19T10:50:56.184Z,8.90
2022-11-19T10:53:31.818Z,7.40
2022-11-19T10:56:04.671Z,7.80
2022-11-19T10:58:37.961Z,9.53
2022-11-19T11:01:17.745Z,7.60
2022-11-19T11:03:50.072Z,9.43
2022-11-19T11:06:19.283Z,8.90
2022-11-19T11:08:52.554Z,9.37
2022-11-19T11:11:26.321Z,9.27
2022-11-19T11:14:11.740Z,10.50
2022-11-19T11:16:47.888Z,9.10
2022-11-19T11:19:19.652Z,8.43
2022-11-19T11:21:53.664Z,9.30
2022-11-19T11:24:23.517Z,14.57
2022-11-19T11:27:22.589Z,12.50
2022-11-19T11:30:04.802Z,11.43
2022-11-19T11:32:35.435Z,10.83
2022-11-19T11:35:08.209Z,14.23
2022-11-19T11:37:38.415Z,15.37
2022-11-19T11:40:09.152Z,11.93
2022-11-19T11:42:37.586Z,14.77
2022-11-19T11:45:09.407Z,13.90
2022-11-19T11:47:41.260Z,14.80
2022-11-19T11:50:16.597Z,15.93
2022-11-19T11:52:47.839Z,16.30
2022-11-19T11:55:32.109Z,18.03
2022-11-19T11:58:03.065Z,15.40
2022-11-19T12:00:35.098Z,18.17
2022-11-19T12:03:08.367Z,15.73
2022-11-19T12:05:48.189Z,16.10
2022-11-19T12:08:32.290Z,18.20
2022-11-19T12:11:08.530Z,15.70
2022-11-19T12:13:52.467Z,18.07
2022-11-19T12:16:33.533Z,15.93
2022-11-19T12:19:18.223Z,18.90
2022-11-19T12:21:57.258Z,21.53
2022-11-19T12:24:42.217Z,19.47
2022-11-19T12:27:24.032Z,19.97
2022-11-19T12:30:05.292Z,20.83
2022-11-19T12:32:54.775Z,20.70
2022-11-19T12:35:45.971Z,24.27
2022-11-19T12:38:40.475Z,26.97
2022-11-19T12:41:24.057Z,22.63
2022-11-19T12:43:57.438Z,32.07
2022-11-19T12:46:40.480Z,27.37
2022-11-19T12:49:29.500Z,27.13
2022-11-19T12:52:06.864Z,25.53
2022-11-19T12:54:53.267Z,29.13
2022-11-19T12:57:40.466Z,24.60
2022-11-19T13:00:14.351Z,25.07
2022-11-19T13:02:53.119Z,26.30
2022-11-19T13:05:26.337Z,25.83
2022-11-19T13:08:01.490Z,24.27
2022-11-19T13:10:37.110Z,24.83
2022-11-19T13:13:10.490Z,25.10
2022-11-19T13:15:41.146Z,26.73
2022-11-19T13:18:16.681Z,26.63
2022-11-19T13:20:50.684Z,26.10
2022-11-19T13:23:25.398Z,26.13
2022-11-19T13:25:59.421Z,28.00
2022-11-19T13:28:36.259Z,27.50
2022-11-19T13:31:08.591Z,28.53
2022-11-19T13:33:45.003Z,29.23
2022-11-19T13:36:19.646Z,28.73
2022-11-19T13:38:54.774Z,31.87
2022-11-19T13:41:26.981Z,27.73
2022-11-19T13:44:15.461Z,30.43
2022-11-19T13:46:47.014Z,30.53
2022-11-19T13:49:22.006Z,33.43
2022-11-19T13:51:53.847Z,33.93
2022-11-19T13:54:26.553Z,29.40
2022-11-19T13:56:58.174Z,31.07
2022-11-19T13:59:33.670Z,35.10
2022-11-19T14:02:38.771Z,37.37
2022-11-19T14:05:35.059Z,40.13
2022-11-19T14:08:18.540Z,36.00
2022-11-19T14:11:04.622Z,32.70
2022-11-19T14:13:46.884Z,33.53
2022-11-19T14:16:43.984Z,36.73
2022-11-19T14:19:33.317Z,32.80
2022-11-19T14:22:39.867Z,33.03
2022-11-19T14:25:28.282Z,36.50
2022-11-19T14:27:57.382Z,36.63
2022-11-19T14:31:03.113Z,31.87
2022-11-19T14:34:01.364Z,35.10
2022-11-19T14:36:42.887Z,34.67
2022-11-19T14:39:19.124Z,35.57
2022-11-19T14:42:13.346Z,33.27
2022-11-19T14:44:42.411Z,33.53
2022-11-19T14:47:34.565Z,36.27
2022-11-19T14:50:06.830Z,34.80
2022-11-19T14:52:39.702Z,35.07
2022-11-19T14:55:22.845Z,33.63
2022-11-19T14:57:58.499Z,32.40
2022-11-19T15:00:31.428Z,36.40
2022-11-19T15:03:02.387Z,36.33
2022-11-19T15:05:34.629Z,33.60
2022-11-19T15:08:44.295Z,32.13
2022-11-19T15:11:14.327Z,30.77
2022-11-19T15:13:46.424Z,34.27
2022-11-19T15:16:17.933Z,30.83
2022-11-19T15:19:22.738Z,34.60
2022-11-19T15:22:33.852Z,35.13
2022-11-19T15:25:31.016Z,33.77
2022-11-19T15:28:07.886Z,31.13
2022-11-19T15:30:53.615Z,35.27
2022-11-19T15:33:56.956Z,35.30
2022-11-19T15:36:31.806Z,34.97
2022-11-19T15:39:06.006Z,38.97
2022-11-19T15:41:39.978Z,33.10
2022-11-19T15:44:14.082Z,38.17
2022-11-19T15:46:52.157Z,35.20
2022-11-19T15:49:24.378Z,38.60
2022-11-19T15:52:06.081Z,44.10
2022-11-19T15:54:36.299Z,41.57
2022-11-19T15:57:07.833Z,43.10
2022-11-19T15:59:39.781Z,46.50
2022-11-19T16:02:22.043Z,41.40
2022-11-19T16:04:51.375Z,39.40
2022-11-19T16:07:25.877Z,43.93
2022-11-19T16:09:55.635Z,44.57
2022-11-19T16:12:42.993Z,42.40
2022-11-19T16:15:38.019Z,46.00
2022-11-19T16:18:15.690Z,56.90
2022-11-19T16:20:47.779Z,46.27
2022-11-19T16:23:22.373Z,62.17
2022-11-19T16:25:51.633Z,44.13
2022-11-19T16:28:24.513Z,46.87
2022-11-19T16:30:54.854Z,46.30
2022-11-19T16:33:27.659Z,54.33
2022-11-19T16:36:14.055Z,52.87
2022-11-19T16:38:44.450Z,45.77
2022-11-19T16:41:31.535Z,47.43
2022-11-19T16:44:00.509Z,44.23
2022-11-19T16:46:31.499Z,55.57
2022-11-19T16:49:03.395Z,47.17
2022-11-19T16:51:37.737Z,57.10
2022-11-19T16:54:08.595Z,64.53
2022-11-19T16:56:41.941Z,60.50
2022-11-19T16:59:19.170Z,41.47
2022-11-19T17:01:56.959Z,48.57
2022-11-19T17:04:30.182Z,61.83
2022-11-19T17:06:59.897Z,48.97
2022-11-19T17:09:44.308Z,43.70
2022-11-19T17:12:27.737Z,41.10
2022-11-19T17:14:59.428Z,55.53
2022-11-19T17:17:40.223Z,56.27
2022-11-19T17:21:00.294Z,45.80
2022-11-19T17:23:32.280Z,46.07
2022-11-19T17:26:03.137Z,40.27
2022-11-19T17:28:38.372Z,51.00
2022-11-19T17:31:15.998Z,51.47
2022-11-19T17:33:52.038Z,73.23
2022-11-19T17:36:22.555Z,34.03
2022-11-19T17:38:52.572Z,31.10
2022-11-19T17:41:38.427Z,30.60
2022-11-19T17:44:30.363Z,29.17
2022-11-19T17:47:00.183Z,28.47
2022-11-19T17:49:28.567Z,25.07
2022-11-19T17:51:57.922Z,25.03
2022-11-19T17:54:27.841Z,22.40
2022-11-19T17:56:56.708Z,23.03
2022-11-19T17:59:25.889Z,24.60
2022-11-19T18:01:54.369Z,19.67
2022-11-19T18:04:23.284Z,24.37
2022-11-19T18:06:51.728Z,23.03
2022-11-19T18:09:20.569Z,26.27
2022-11-19T18:11:51.452Z,24.23
2022-11-19T18:14:20.273Z,21.43
2022-11-19T18:16:50.022Z,23.50
2022-11-19T18:19:26.554Z,23.57
2022-11-19T18:21:55.787Z,24.03
2022-11-19T18:24:25.338Z,20.53
2022-11-19T18:26:55.511Z,19.23
2022-11-19T18:29:24.671Z,23.87
2022-11-19T18:31:54.151Z,24.03
2022-11-19T18:34:24.580Z,26.67
2022-11-19T18:36:53.302Z,23.87
2022-11-19T18:39:22.380Z,23.00
2022-11-19T18:41:52.704Z,24.30
2022-11-19T18:44:33.968Z,24.70
2022-11-19T18:47:03.786Z,24.43
2022-11-19T18:49:33.790Z,26.47
2022-11-19T18:52:02.381Z,26.17
2022-11-19T18:54:31.641Z,22.40
2022-11-19T18:57:00.230Z,35.63
2022-11-19T18:59:30.914Z,29.10
2022-11-19T19:01:59.631Z,30.57
2022-11-19T19:04:28.132Z,32.30
2022-11-19T19:06:59.611Z,32.60
2022-11-19T19:09:28.183Z,28.50
2022-11-19T19:12:14.328Z,29.20
2022-11-19T19:14:44.974Z,32.03
2022-11-19T19:17:15.096Z,28.47
2022-11-19T19:19:43.662Z,28.53
2022-11-19T19:22:12.902Z,23.30
2022-11-19T19:24:42.306Z,30.73
2022-11-19T19:27:11.118Z,28.77
2022-11-19T19:29:40.537Z,32.07
2022-11-19T19:32:10.300Z,48.27
2022-11-19T19:34:39.793Z,71.40
2022-11-19T19:37:08.242Z,43.37
2022-11-19T19:39:38.076Z,33.80
2022-11-19T19:42:06.771Z,34.43
2022-11-19T19:44:40.713Z,29.20
2022-11-19T19:47:10.978Z,39.57
2022-11-19T19:49:39.506Z,64.83
2022-11-19T19:52:08.914Z,37.07
2022-11-19T19:54:37.450Z,30.23
2022-11-19T19:57:06.753Z,39.27
2022-11-19T19:59:35.471Z,31.50
2022-11-19T20:02:03.892Z,34.90
2022-11-19T20:04:34.065Z,33.10
2022-11-19T20:07:03.195Z,36.93
2022-11-19T20:09:31.653Z,32.07
2022-11-19T20:12:00.942Z,30.30
2022-11-19T20:14:30.062Z,45.17
2022-11-19T20:16:58.727Z,32.43
2022-11-19T20:19:27.188Z,28.67
2022-11-19T20:21:56.921Z,32.53
2022-11-19T20:24:25.768Z,31.77
2022-11-19T20:26:55.648Z,27.97
2022-11-19T20:29:24.406Z,30.77
2022-11-19T20:31:52.893Z,24.80
2022-11-19T20:34:21.892Z,28.63
2022-11-19T20:36:50.348Z,24.17
2022-11-19T20:39:20.418Z,24.67
2022-11-19T20:42:07.976Z,22.07
2022-11-19T20:44:36.402Z,23.03
2022-11-19T20:47:05.806Z,23.73
2022-11-19T20:49:38.694Z,20.67
2022-11-19T20:52:07.920Z,20.17
2022-11-19T20:54:37.897Z,28.00
2022-11-19T20:57:07.229Z,24.87
2022-11-19T20:59:36.498Z,26.27
2022-11-19T21:02:05.357Z,28.73
2022-11-19T21:04:37.613Z,26.60
2022-11-19T21:07:07.176Z,23.43
2022-11-19T21:09:37.524Z,22.90
2022-11-19T21:12:07.182Z,24.20
2022-11-19T21:14:35.902Z,38.43
2022-11-19T21:17:04.382Z,24.33
2022-11-19T21:19:32.845Z,22.63
2022-11-19T21:22:01.811Z,23.77
2022-11-19T21:24:30.761Z,27.77
2022-11-19T21:27:00.672Z,24.13
2022-11-19T21:29:29.190Z,69.87
2022-11-19T21:31:59.007Z,57.57
2022-11-19T21:34:27.475Z,40.97
2022-11-19T21:36:58.293Z,25.80
2022-11-19T21:39:27.131Z,20.57
2022-11-19T21:41:57.146Z,20.17
2022-11-19T21:44:27.224Z,22.23
2022-11-19T21:46:55.591Z,20.07
2022-11-19T21:49:25.122Z,22.23
2022-11-19T21:51:53.506Z,20.70
2022-11-19T21:54:22.861Z,26.27
2022-11-19T21:56:51.784Z,22.13
2022-11-19T21:59:20.482Z,22.80
2022-11-19T22:01:54.749Z,22.60
2022-11-19T22:04:23.628Z,25.93
2022-11-19T22:06:52.455Z,24.83
2022-11-19T22:09:21.170Z,21.80
2022-11-19T22:11:50.696Z,24.10
2022-11-19T22:14:19.158Z,22.97
2022-11-19T22:16:48.046Z,23.20
2022-11-19T22:19:19.550Z,20.80
2022-11-19T22:21:48.709Z,20.83
2022-11-19T22:24:17.338Z,24.03
2022-11-19T22:26:47.720Z,21.20
2022-11-19T22:29:16.735Z,20.33
2022-11-19T22:31:45.216Z,22.03
2022-11-19T22:34:14.662Z,26.27
2022-11-19T22:36:44.838Z,20.40
2022-11-19T22:39:14.179Z,28.53
2022-11-19T22:41:43.002Z,30.97
2022-11-19T22:44:11.686Z,24.67
2022-11-19T22:46:40.085Z,20.90
2022-11-19T22:49:09.338Z,19.00
2022-11-19T22:51:37.932Z,19.97
2022-11-19T22:54:09.083Z,24.40
2022-11-19T22:56:37.669Z,24.50
2022-11-19T22:59:07.061Z,21.67
2022-11-19T23:01:36.564Z,21.43
2022-11-19T23:04:07.062Z,17.50
2022-11-19T23:06:37.262Z,21.17
2022-11-19T23:09:08.480Z,22.87
2022-11-19T23:11:55.044Z,20.33
2022-11-19T23:14:25.211Z,19.97
2022-11-19T23:16:54.376Z,20.60
2022-11-19T23:19:23.478Z,23.00
2022-11-19T23:21:52.155Z,23.40
2022-11-19T23:24:22.575Z,19.33
2022-11-19T23:26:50.965Z,21.17
2022-11-19T23:29:20.914Z,21.13
2022-11-19T23:31:50.030Z,21.77
2022-11-19T23:34:19.035Z,21.30
2022-11-19T23:36:47.418Z,21.67
2022-11-19T23:39:18.391Z,26.63
2022-11-19T23:41:48.634Z,29.13
2022-11-19T23:44:17.098Z,25.03
2022-11-19T23:46:47.021Z,25.20
2022-11-19T23:49:15.480Z,21.33
2022-11-19T23:51:44.964Z,24.43
2022-11-19T23:54:13.882Z,36.33
2022-11-19T23:56:43.408Z,33.60
2022-11-19T23:59:13.634Z,21.77
